Fountain, Illinois
Current Conditions -  °F | °C
As of 9:53 PM on Wednesday 17 Dec 2014 (Local Time) from KCPS Reporting Station
Broken Clouds Broken Clouds  
Wind Chill: 26°   Ceiling: 9000
Heat Index: 32°   Visibility: 10mi
Dew Point: 26°   Wind: 6mph
Humidity: 79%   Direction: 40°NE
Pressure: 30.31"   Gusts: NA
Location:  38.2838°N, 90.3044°W
Report Text: KCPS 180353Z 04005KT 10SM BKN090 00/M03 A3031 RMK AO2 SLP269 T00001033
Loading
Personal Weather Stations






























Interactive Weather Map New forecast layout! Learn more

10-Day Weather Forecast

Advertisements
Track Severe Weather on mobile